TimeCDT,TemperatureF,Dew PointF,Humidity,Sea Level PressureIn,VisibilityMPH,Wind Direction,Wind SpeedMPH,Gust SpeedMPH,PrecipitationIn,Events,Conditions,WindDirDegrees,DateUTC
12:53 AM,32.0,30.0,92,30.42,10.0,West,12.7,-,N/A,,Overcast,270,2012-10-07 05:53:00
1:53 AM,30.9,28.9,92,30.40,10.0,West,5.8,-,N/A,,Scattered Clouds,280,2012-10-07 06:53:00
2:53 AM,28.0,27.0,96,30.40,10.0,WSW,3.5,-,N/A,,Clear,250,2012-10-07 07:53:00
3:53 AM,27.0,25.0,92,30.37,10.0,WSW,5.8,-,N/A,,Clear,250,2012-10-07 08:53:00
4:53 AM,26.1,25.0,96,30.36,8.0,SW,4.6,-,N/A,,Clear,230,2012-10-07 09:53:00
5:13 AM,24.8,24.8,100,30.28,8.0,SW,3.5,-,N/A,,Partly Cloudy,230,2012-10-07 10:13:00
5:53 AM,25.0,23.0,92,30.35,9.0,West,4.6,-,N/A,,Clear,270,2012-10-07 10:53:00
6:22 AM,24.8,21.2,86,30.27,2.5,WSW,4.6,-,N/A,,Partly Cloudy,240,2012-10-07 11:22:00
6:31 AM,24.8,23.0,93,30.27,1.0,Calm,Calm,-,N/A,,Mist,0,2012-10-07 11:31:00
6:38 AM,24.8,23.0,93,30.27,0.5,SW,3.5,-,N/A,Fog,Light Freezing Fog,230,2012-10-07 11:38:00
6:51 AM,23.0,21.2,93,30.27,1.2,West,4.6,-,N/A,,Scattered Clouds,260,2012-10-07 11:51:00
6:53 AM,23.0,21.9,96,30.35,1.2,West,4.6,-,N/A,,Scattered Clouds,260,2012-10-07 11:53:00
7:05 AM,24.8,21.2,86,30.27,3.0,West,5.8,-,N/A,,Clear,260,2012-10-07 12:05:00
7:53 AM,23.0,21.9,96,30.35,7.0,WSW,3.5,-,N/A,,Clear,250,2012-10-07 12:53:00
8:53 AM,28.0,26.1,92,30.35,10.0,West,5.8,-,N/A,,Clear,260,2012-10-07 13:53:00
9:53 AM,33.1,30.0,89,30.33,10.0,SW,4.6,-,N/A,,Clear,220,2012-10-07 14:53:00
10:53 AM,41.0,35.1,79,30.30,10.0,SW,8.1,-,N/A,,Clear,220,2012-10-07 15:53:00
11:53 AM,46.0,35.1,66,30.26,10.0,SW,13.8,23.0,N/A,,Partly Cloudy,220,2012-10-07 16:53:00
12:53 PM,48.9,33.1,54,30.24,10.0,SW,12.7,-,N/A,,Scattered Clouds,230,2012-10-07 17:53:00
1:53 PM,50.0,33.1,52,30.20,10.0,SW,11.5,-,N/A,,Scattered Clouds,220,2012-10-07 18:53:00
2:53 PM,52.0,30.0,43,30.16,10.0,West,5.8,23.0,N/A,,Scattered Clouds,260,2012-10-07 19:53:00
3:53 PM,55.0,28.9,37,30.12,10.0,WSW,12.7,19.6,N/A,,Partly Cloudy,240,2012-10-07 20:53:00
4:53 PM,55.9,24.1,29,30.10,10.0,West,12.7,-,N/A,,Clear,280,2012-10-07 21:53:00
5:53 PM,54.0,23.0,30,30.09,10.0,West,11.5,-,N/A,,Clear,280,2012-10-07 22:53:00
6:53 PM,50.0,23.0,35,30.10,10.0,West,8.1,-,N/A,,Clear,270,2012-10-07 23:53:00
7:53 PM,46.9,23.0,39,30.11,10.0,West,5.8,-,N/A,,Clear,270,2012-10-08 00:53:00
8:53 PM,41.0,26.1,55,30.12,10.0,SW,5.8,-,N/A,,Clear,230,2012-10-08 01:53:00
9:53 PM,36.0,25.0,64,30.12,10.0,SW,8.1,-,N/A,,Clear,220,2012-10-08 02:53:00
10:53 PM,34.0,25.0,70,30.10,10.0,SW,8.1,-,N/A,,Clear,230,2012-10-08 03:53:00
11:53 PM,34.0,25.0,70,30.08,10.0,WSW,8.1,-,N/A,,Clear,240,2012-10-08 04:53:00